Flight Track Log - Related Links

Times and Time Zones

All times are in EDT time to prevent confusion due to time zone crossing. See the VH-UPY flight status page for this flight to view local times or setup timezone preferences in your user account.

Time Position Orientation Groundspeed Altitude Reporting Facility
EDT Latitude Longitude Course Direction KTS MPH feet Rate Location/Type
Tue 06:44:48 PM -16.8952 145.7680 32° Northeast 97 112 900  Level Aus ATC (RADAR)
Tue 06:45:23 PM -16.8801 145.7779 32° Northeast 110 127 1,100 424 Climbing Aus ATC (RADAR)
Tue 06:46:13 PM -16.8573 145.7948 35° Northeast 123 142 1,500 480 Climbing Aus ATC (RADAR)
Tue 06:46:38 PM -16.8458 145.8050 40° Northeast 129 148 1,700 600 Climbing Aus ATC (RADAR)
Tue 06:47:43 PM -16.8160 145.8310 40° Northeast 129 148 2,400 600 Climbing Aus ATC (RADAR)
Tue 06:48:08 PM -16.8053 145.8405 40° Northeast 124 143 2,600 600 Climbing Aus ATC (RADAR)
Tue 06:48:43 PM -16.8017 145.8590 79° East 122 140 3,000 684 Climbing Aus ATC (RADAR)
Tue 06:49:27 PM -16.8144 145.8812 121° Southeast 122 140 3,500 600 Climbing Aus ATC (RADAR)
Tue 06:50:03 PM -16.8330 145.8904 155° Southeast 126 145 3,800 565 Climbing Aus ATC (RADAR)
Tue 06:50:52 PM -16.8583 145.9067 148° Southeast 128 147 4,300 684 Climbing Aus ATC (RADAR)
Tue 06:51:22 PM -16.8734 145.9165 148° Southeast 128 147 4,700 646 Climbing Aus ATC (RADAR)
Tue 06:51:57 PM -16.8909 145.9281 148° Southeast 127 146 5,000 574 Climbing Aus ATC (RADAR)
Tue 06:53:17 PM -16.9288 145.9546 146° Southeast 128 147 5,800 629 Climbing Aus ATC (RADAR)
Tue 06:53:42 PM -16.9420 145.9624 151° Southeast 131 151 6,100 600 Climbing Aus ATC (RADAR)
Tue 06:54:17 PM -16.9598 145.9749 146° Southeast 132 152 6,400 600 Climbing Aus ATC (RADAR)
Tue 06:55:02 PM -16.9817 145.9935 141° Southeast 135 155 6,900 565 Climbing Aus ATC (RADAR)
Tue 06:55:42 PM -17.0019 146.0081 145° Southeast 132 152 7,200 565 Climbing Aus ATC (RADAR)
Tue 06:56:27 PM -17.0251 146.0246 146° Southeast 134 154 7,700 600 Climbing Aus ATC (RADAR)
Tue 06:56:52 PM -17.0376 146.0338 145° Southeast 133 153 7,900 600 Climbing Aus ATC (RADAR)
Tue 06:58:17 PM -17.0814 146.0653 145° Southeast 135 155 8,800 600 Climbing Aus ATC (RADAR)
Tue 06:58:32 PM -17.0890 146.0709 145° Southeast 136 157 8,900 600 Climbing Aus ATC (RADAR)
Tue 06:59:07 PM -17.1072 146.0837 146° Southeast 135 155 9,300 706 Climbing Aus ATC (RADAR)
Tue 06:59:57 PM -17.1336 146.1028 145° Southeast 139 160 9,900 635 Climbing Aus ATC (RADAR)
Tue 07:00:32 PM -17.1527 146.1163 146° Southeast 141 162 10,200 607 Climbing Aus ATC (RADAR)
Tue 07:01:26 PM -17.1834 146.1385 145° Southeast 145 167 10,800 600 Climbing Aus ATC (RADAR)
Tue 07:01:42 PM -17.1917 146.1447 145° Southeast 144 166 10,900 568 Climbing Aus ATC (RADAR)
Tue 07:03:01 PM -17.2409 146.1799 146° Southeast 162 186 11,700 606 Climbing Aus ATC (RADAR)
Tue 07:03:31 PM -17.2601 146.1937 145° Southeast 166 191 12,000 655 Climbing Aus ATC (RADAR)
Tue 07:03:56 PM -17.2763 146.2053 146° Southeast 169 194 12,300 600 Climbing Aus ATC (RADAR)
Tue 07:04:31 PM -17.2995 146.2224 145° Southeast 174 200 12,600 480 Climbing Aus ATC (RADAR)
Tue 07:05:11 PM -17.3270 146.2421 146° Southeast 181 208 12,900 494 Climbing Aus ATC (RADAR)
Tue 07:05:56 PM -17.3584 146.2647 145° Southeast 182 209 13,300 533 Climbing Aus ATC (RADAR)
Tue 07:06:41 PM -17.3902 146.2880 145° Southeast 187 215 13,700 514 Climbing Aus ATC (RADAR)
Tue 07:07:06 PM -17.4084 146.3006 147° Southeast 188 216 13,900 514 Climbing Aus ATC (RADAR)
Tue 07:07:51 PM -17.4412 146.3241 146° Southeast 189 217 14,300 525 Climbing Aus ATC (RADAR)
Tue 07:08:26 PM -17.4668 146.3428 145° Southeast 192 221 14,600 480 Climbing Aus ATC (RADAR)
Tue 07:09:06 PM -17.4964 146.3636 146° Southeast 192 221 14,900 494 Climbing Aus ATC (RADAR)
Tue 07:09:51 PM -17.5291 146.3880 145° Southeast 191 220 15,300 560 Climbing Aus ATC (RADAR)
Tue 07:10:21 PM -17.5513 146.4039 145° Southeast 192 221 15,600 500 Climbing Aus ATC (RADAR)
Tue 07:10:51 PM -17.5730 146.4196 145° Southeast 190 219 15,800 525 Climbing Aus ATC (RADAR)
Tue 07:11:41 PM -17.6088 146.4450 146° Southeast 184 212 16,300 571 Climbing Aus ATC (RADAR)
Tue 07:12:15 PM -17.6339 146.4632 145° Southeast 188 216 16,600 447 Climbing Aus ATC (RADAR)
Tue 07:13:15 PM -17.6771 146.4945 145° Southeast 190 219 17,000 353 Climbing Aus ATC (RADAR)
Tue 07:13:40 PM -17.6959 146.5079 146° Southeast 194 223 17,100 100 Climbing Aus ATC (RADAR)
Tue 07:14:15 PM -17.7234 146.5276 146° Southeast 205 236 17,100  Level Aus ATC (RADAR)
Tue 07:15:00 PM -17.7595 146.5541 145° Southeast 212 244 17,100  Level Aus ATC (RADAR)
Tue 07:15:40 PM -17.7914 146.5770 146° Southeast 209 241 17,100  Level Aus ATC (RADAR)
Tue 07:16:30 PM -17.8310 146.6058 145° Southeast 208 239 17,100  Level Aus ATC (RADAR)
Tue 07:16:50 PM -17.8465 146.6170 145° Southeast 205 236 17,100  Level Aus ATC (RADAR)
Tue 07:17:25 PM -17.8740 146.6368 146° Southeast 205 236 17,100  Level Aus ATC (RADAR)
Tue 07:18:30 PM -17.9253 146.6742 145° Southeast 207 238 17,100  Level Aus ATC (RADAR)
Tue 07:18:50 PM -17.9414 146.6853 147° Southeast 208 239 17,100  Level Aus ATC (RADAR)
Tue 07:19:30 PM -17.9739 146.7059 149° Southeast 205 236 17,100  Level Aus ATC (RADAR)
Tue 07:20:15 PM -18.0106 146.7288 149° Southeast 204 235 17,100  Level Aus ATC (RADAR)
Tue 07:20:50 PM -18.0392 146.7462 150° Southeast 205 236 17,100  Level Aus ATC (RADAR)
Tue 07:21:39 PM -18.0797 146.7716 149° Southeast 203 234 17,100  Level Aus ATC (RADAR)
Tue 07:21:59 PM -18.0964 146.7815 151° Southeast 205 236 17,100  Level Aus ATC (RADAR)
Tue 07:22:34 PM -18.1249 146.7996 149° Southeast 206 237 17,100  Level Aus ATC (RADAR)
Tue 07:23:39 PM -18.1784 146.8327 150° Southeast 206 237 17,100  Level Aus ATC (RADAR)
Tue 07:24:04 PM -18.1992 146.8455 150° Southeast 208 239 17,100  Level Aus ATC (RADAR)
Tue 07:24:39 PM -18.2280 146.8636 149° Southeast 206 237 17,100  Level Aus ATC (RADAR)
Tue 07:25:29 PM -18.2698 146.8896 149° Southeast 210 242 17,100  Level Aus ATC (RADAR)
Tue 07:26:04 PM -18.2983 146.9073 149° Southeast 205 236 17,100  Level Aus ATC (RADAR)
Tue 07:26:54 PM -18.3399 146.9331 150° Southeast 211 243 17,100  Level Aus ATC (RADAR)
Tue 07:27:19 PM -18.3607 146.9458 150° Southeast 208 239 17,100  Level Aus ATC (RADAR)
Tue 07:28:29 PM -18.4183 146.9812 150° Southeast 207 238 17,100  Level Aus ATC (RADAR)
Tue 07:29:04 PM -18.4474 146.9995 149° Southeast 209 241 17,100  Level Aus ATC (RADAR)
Tue 07:29:19 PM -18.4597 147.0072 149° Southeast 210 242 17,100  Level Aus ATC (RADAR)
Tue 07:29:54 PM -18.4893 147.0256 150° Southeast 212 244 17,100  Level Aus ATC (RADAR)
Tue 07:30:44 PM -18.5308 147.0522 149° Southeast 212 244 17,100  Level Aus ATC (RADAR)
Tue 07:31:24 PM -18.5643 147.0725 150° Southeast 211 243 17,100  Level Aus ATC (RADAR)
Tue 07:32:14 PM -18.6066 147.0992 149° Southeast 215 247 17,100  Level Aus ATC (RADAR)
Tue 07:32:49 PM -18.6359 147.1177 149° Southeast 213 245 17,100  Level Aus ATC (RADAR)
Tue 07:34:08 PM -18.7033 147.1590 150° Southeast 212 244 17,100  Level Aus ATC (RADAR)
Tue 07:34:33 PM -18.7239 147.1720 149° Southeast 207 238 17,100  Level Aus ATC (RADAR)
Tue 07:35:09 PM -18.7534 147.1910 149° Southeast 213 245 17,100  Level Aus ATC (RADAR)
Tue 07:35:53 PM -18.7912 147.2141 150° Southeast 210 242 17,100  Level Aus ATC (RADAR)
Tue 07:36:33 PM -18.8247 147.2353 149° Southeast 211 243 17,100  Level Aus ATC (RADAR)
Tue 07:37:18 PM -18.8629 147.2593 149° Southeast 210 242 17,100  Level Aus ATC (RADAR)
Tue 07:37:53 PM -18.8919 147.2769 150° Southeast 209 241 17,100  Level Aus ATC (RADAR)
Tue 07:39:08 PM -18.9546 147.3164 149° Southeast 212 244 17,100  Level Aus ATC (RADAR)
Tue 07:39:38 PM -18.9798 147.3321 149° Southeast 211 243 17,100  Level Aus ATC (RADAR)
Tue 07:40:13 PM -19.0091 147.3506 149° Southeast 211 243 17,100  Level Aus ATC (RADAR)
Tue 07:40:48 PM -19.0385 147.3691 149° Southeast 212 244 17,100  Level Aus ATC (RADAR)
Tue 07:41:23 PM -19.0676 147.3870 150° Southeast 208 239 17,100  Level Aus ATC (RADAR)
Tue 07:42:13 PM -19.1105 147.4137 150° Southeast 213 245 17,100  Level Aus ATC (RADAR)
Tue 07:42:38 PM -19.1311 147.4267 149° Southeast 208 239 17,100  Level Aus ATC (RADAR)
Tue 07:43:52 PM -19.1948 147.4666 149° Southeast 218 251 17,100  Level Aus ATC (RADAR)
Tue 07:44:17 PM -19.2157 147.4798 149° Southeast 211 243 17,100  Level Aus ATC (RADAR)
Tue 07:44:42 PM -19.2366 147.4928 150° Southeast 209 241 17,100  Level Aus ATC (RADAR)
Tue 07:45:22 PM -19.2701 147.5144 149° Southeast 211 243 17,100  Level Aus ATC (RADAR)
Tue 07:46:12 PM -19.3127 147.5408 150° Southeast 213 245 17,100  Level Aus ATC (RADAR)
Tue 07:46:47 PM -19.3424 147.5596 149° Southeast 215 247 17,100  Level Aus ATC (RADAR)
Tue 07:47:37 PM -19.3851 147.5859 150° Southeast 213 245 17,100  Level Aus ATC (RADAR)
Tue 07:48:02 PM -19.4059 147.5991 149° Southeast 210 242 17,100  Level Aus ATC (RADAR)
Tue 07:49:17 PM -19.4702 147.6396 149° Southeast 215 247 17,100  Level Aus ATC (RADAR)
Tue 07:49:47 PM -19.4958 147.6562 149° Southeast 214 246 17,100  Level Aus ATC (RADAR)
Tue 07:50:22 PM -19.5263 147.6753 149° Southeast 218 251 17,100  Level Aus ATC (RADAR)
Tue 07:50:57 PM -19.5567 147.6946 149° Southeast 219 252 17,100  Level Aus ATC (RADAR)
Tue 07:51:32 PM -19.5874 147.7139 149° Southeast 220 253 17,100  Level Aus ATC (RADAR)
Tue 07:52:17 PM -19.6269 147.7392 149° Southeast 221 254 17,100  Level Aus ATC (RADAR)
Tue 07:52:47 PM -19.6534 147.7554 150° Southeast 220 253 17,100  Level Aus ATC (RADAR)
Tue 07:53:47 PM -19.7067 147.7888 149° Southeast 222 255 17,100  Level Aus ATC (RADAR)
Tue 07:54:17 PM -19.7331 147.8054 149° Southeast 220 253 17,100  Level Aus ATC (RADAR)
Tue 07:54:31 PM -19.7463 147.8139 149° Southeast 221 254 17,100  Level Aus ATC (RADAR)
Tue 07:55:06 PM -19.7770 147.8332 149° Southeast 220 253 17,100  Level Aus ATC (RADAR)
Tue 07:56:01 PM -19.8250 147.8639 149° Southeast 219 252 17,100  Level Aus ATC (RADAR)
Tue 07:56:36 PM -19.8554 147.8831 149° Southeast 218 251 17,100  Level Aus ATC (RADAR)
Tue 07:57:21 PM -19.8943 147.9079 149° Southeast 218 251 17,100  Level Aus ATC (RADAR)
Tue 07:57:46 PM -19.9160 147.9213 150° Southeast 216 249 17,100  Level Aus ATC (RADAR)
Tue 07:59:06 PM -19.9854 147.9654 149° Southeast 219 252 17,100  Level Aus ATC (RADAR)
Tue 07:59:36 PM -20.0113 147.9815 150° Southeast 216 249 17,100  Level Aus ATC (RADAR)
Tue 07:59:56 PM -20.0285 147.9928 148° Southeast 217 250 17,100  Level Aus ATC (RADAR)
Tue 08:00:36 PM -20.0628 148.0150 149° Southeast 216 249 17,100  Level Aus ATC (RADAR)
Tue 08:01:11 PM -20.0932 148.0338 150° Southeast 217 250 17,100  Level Aus ATC (RADAR)
Tue 08:01:46 PM -20.1233 148.0529 149° Southeast 216 249 17,100  Level Aus ATC (RADAR)
Tue 08:02:36 PM -20.1660 148.0805 149° Southeast 216 249 17,100  Level Aus ATC (RADAR)
Tue 08:03:01 PM -20.1873 148.0942 149° Southeast 214 246 17,100  Level Aus ATC (RADAR)
Tue 08:04:15 PM -20.2509 148.1349 149° Southeast 214 246 17,100  Level Aus ATC (RADAR)
Tue 08:04:41 PM -20.2722 148.1482 149° Southeast 213 245 17,100  Level Aus ATC (RADAR)
Tue 08:05:15 PM -20.3017 148.1667 150° Southeast 213 245 17,100  Level Aus ATC (RADAR)
Tue 08:06:00 PM -20.3397 148.1912 149° Southeast 212 244 17,100  Level Aus ATC (RADAR)
Tue 08:06:35 PM -20.3693 148.2100 149° Southeast 212 244 17,100  Level Aus ATC (RADAR)
Tue 08:07:25 PM -20.4111 148.2371 149° Southeast 212 244 17,100  Level Aus ATC (RADAR)
Tue 08:07:50 PM -20.4320 148.2508 149° Southeast 211 243 17,100  Level Aus ATC (RADAR)
Tue 08:08:25 PM -20.4613 148.2691 150° Southeast 209 241 17,100  Level Aus ATC (RADAR)
Tue 08:09:25 PM -20.5109 148.3009 149° Southeast 209 241 17,100  Level Aus ATC (RADAR)
Tue 08:09:50 PM -20.5316 148.3143 149° Southeast 208 239 17,100  Level Aus ATC (RADAR)
Tue 08:10:25 PM -20.5602 148.3328 149° Southeast 206 237 17,100  Level Aus ATC (RADAR)
Tue 08:11:05 PM -20.5934 148.3537 149° Southeast 207 238 17,100  Level Aus ATC (RADAR)
Tue 08:11:40 PM -20.6220 148.3724 149° Southeast 206 237 17,100  Level Aus ATC (RADAR)
Tue 08:12:25 PM -20.6592 148.3958 150° Southeast 205 236 17,100  Level Aus ATC (RADAR)
Tue 08:12:50 PM -20.6796 148.4094 148° Southeast 207 238 17,100  Level Aus ATC (RADAR)
Tue 08:13:25 PM -20.7084 148.4281 149° Southeast 207 238 17,100  Level Aus ATC (RADAR)
Tue 08:14:34 PM -20.7662 148.4651 149° Southeast 209 241 17,100  Level Aus ATC (RADAR)
Tue 08:14:59 PM -20.7871 148.4785 149° Southeast 210 242 17,100  Level Aus ATC (RADAR)
Tue 08:15:34 PM -20.8160 148.4974 149° Southeast 210 242 17,100  Level Aus ATC (RADAR)
Tue 08:16:29 PM -20.8619 148.5268 149° Southeast 210 242 17,100  Level Aus ATC (RADAR)
Tue 08:17:04 PM -20.8910 148.5456 149° Southeast 211 243 17,100  Level Aus ATC (RADAR)
Tue 08:17:54 PM -20.9328 148.5725 149° Southeast 211 243 17,100  Level Aus ATC (RADAR)
Tue 08:18:09 PM -20.9453 148.5805 149° Southeast 210 242 17,100  Level Aus ATC (RADAR)
Tue 08:19:14 PM -20.9996 148.6158 149° Southeast 210 242 17,100  Level Aus ATC (RADAR)
Tue 08:19:49 PM -21.0289 148.6347 149° Southeast 211 243 17,100  Level Aus ATC (RADAR)
Tue 08:20:04 PM -21.0413 148.6426 149° Southeast 209 241 17,100  Level Aus ATC (RADAR)
Tue 08:20:39 PM -21.0704 148.6615 149° Southeast 210 242 17,100  Level Aus ATC (RADAR)
Tue 08:21:29 PM -21.1117 148.6883 149° Southeast 207 238 17,100  Level Aus ATC (RADAR)
Tue 08:22:04 PM -21.1410 148.7075 149° Southeast 212 244 17,100  Level Aus ATC (RADAR)
Tue 08:22:59 PM -21.1865 148.7364 149° Southeast 207 238 17,100  Level Aus ATC (RADAR)
Tue 08:23:14 PM -21.1989 148.7441 150° Southeast 208 239 17,100  Level Aus ATC (RADAR)
Tue 08:24:24 PM -21.2562 148.7813 149° Southeast 207 238 17,100  Level Aus ATC (RADAR)
Tue 08:24:53 PM -21.2808 148.7968 150° Southeast 208 239 17,100  Level Aus ATC (RADAR)
Tue 08:25:08 PM -21.2929 148.8048 148° Southeast 207 238 17,100  Level Aus ATC (RADAR)
Tue 08:25:43 PM -21.3219 148.8234 149° Southeast 205 236 17,100  Level Aus ATC (RADAR)
Tue 08:26:33 PM -21.3631 148.8504 149° Southeast 211 243 17,100  Level Aus ATC (RADAR)
Tue 08:27:08 PM -21.3919 148.8690 149° Southeast 207 238 17,100  Level Aus ATC (RADAR)
Tue 08:27:53 PM -21.4293 148.8929 149° Southeast 209 241 17,100  Level Aus ATC (RADAR)
Tue 08:28:18 PM -21.4497 148.9063 148° Southeast 206 237 17,100  Level Aus ATC (RADAR)
Tue 08:29:23 PM -21.5038 148.9417 149° Southeast 212 244 17,100  Level Aus ATC (RADAR)
Tue 08:29:48 PM -21.5247 148.9550 149° Southeast 210 242 17,100  Level Aus ATC (RADAR)
Tue 08:30:13 PM -21.5456 148.9683 149° Southeast 208 239 17,100  Level Aus ATC (RADAR)
Tue 08:30:53 PM -21.5786 148.9901 148° Southeast 210 242 17,100  Level Aus ATC (RADAR)
Tue 08:31:28 PM -21.6066 149.0089 148° Southeast 204 235 17,100  Level Aus ATC (RADAR)
Tue 08:32:03 PM -21.6369 149.0267 151° Southeast 209 241 17,100  Level Aus ATC (RADAR)
Tue 08:32:53 PM -21.6771 149.0539 148° Southeast 205 236 17,100  Level Aus ATC (RADAR)
Tue 08:33:18 PM -21.6979 149.0667 150° Southeast 204 235 17,100  Level Aus ATC (RADAR)
Tue 08:33:52 PM -21.7265 149.0846 150° Southeast 204 235 17,100  Level Aus ATC (RADAR)
Tue 08:35:07 PM -21.7861 149.1237 149° Southeast 202 232 17,100  Level Aus ATC (RADAR)
Tue 08:35:22 PM -21.7977 149.1314 149° Southeast 199 229 17,100  Level Aus ATC (RADAR)
Tue 08:35:57 PM -21.8255 149.1492 149° Southeast 197 227 17,100  Level Aus ATC (RADAR)
Tue 08:36:47 PM -21.8652 149.1750 149° Southeast 201 231 17,100  Level Aus ATC (RADAR)
Tue 08:37:22 PM -21.8923 149.1929 149° Southeast 196 226 17,100  Level Aus ATC (RADAR)
Tue 08:38:12 PM -21.9308 149.2189 148° Southeast 196 226 17,100  Level Aus ATC (RADAR)
Tue 08:38:37 PM -21.9501 149.2314 149° Southeast 193 222 17,100  Level Aus ATC (RADAR)
Tue 08:39:42 PM -21.9999 149.2637 149° Southeast 193 222 17,100  Level Aus ATC (RADAR)
Tue 08:40:12 PM -22.0229 149.2782 150° Southeast 191 220 17,100  Level Aus ATC (RADAR)
Tue 08:40:37 PM -22.0413 149.2913 147° Southeast 191 220 17,100  Level Aus ATC (RADAR)
Tue 08:41:17 PM -22.0712 149.3112 148° Southeast 188 216 17,100  Level Aus ATC (RADAR)
Tue 08:41:52 PM -22.0972 149.3286 148° Southeast 189 217 17,100  Level Aus ATC (RADAR)
Tue 08:42:32 PM -22.1259 149.3476 148° Southeast 184 212 17,100  Level Aus ATC (RADAR)
Tue 08:43:22 PM -22.1620 149.3719 148° Southeast 181 208 17,100  Level Aus ATC (RADAR)
Tue 08:43:47 PM -22.1804 149.3837 149° Southeast 185 213 17,100  Level Aus ATC (RADAR)
Tue 08:44:41 PM -22.2203 149.4097 149° Southeast 181 208 17,100  Level Aus ATC (RADAR)
Tue 08:45:11 PM -22.2422 149.4239 149° Southeast 185 213 17,100  Level Aus ATC (RADAR)
Tue 08:45:31 PM -22.2566 149.4335 148° Southeast 184 212 17,100  Level Aus ATC (RADAR)
Tue 08:46:06 PM -22.2819 149.4503 148° Southeast 182 209 17,100  Level Aus ATC (RADAR)
Tue 08:47:01 PM -22.3212 149.4781 147° Southeast 184 212 17,100  Level Aus ATC (RADAR)
Tue 08:47:41 PM -22.3503 149.4967 149° Southeast 180 207 17,100  Level Aus ATC (RADAR)
Tue 08:48:31 PM -22.3860 149.5215 147° Southeast 182 209 17,100  Level Aus ATC (RADAR)
Tue 08:49:06 PM -22.4114 149.5380 149° Southeast 181 208 17,100  Level Aus ATC (RADAR)
Tue 08:50:26 PM -22.4690 149.5766 148° Southeast 181 208 17,100  Level Aus ATC (RADAR)
Tue 08:50:41 PM -22.4799 149.5838 148° Southeast 185 213 17,100  Level Aus ATC (RADAR)
Tue 08:51:21 PM -22.5060 149.6079 140° Southeast 184 212 17,100  Level Aus ATC (RADAR)
Tue 08:52:11 PM -22.5382 149.6398 138° Southeast 190 219 17,100  Level Aus ATC (RADAR)
Tue 08:52:46 PM -22.5600 149.6631 135° Southeast 187 215 17,100  Level Aus ATC (RADAR)
Tue 08:53:31 PM -22.5886 149.6921 137° Southeast 187 215 17,100  Level Aus ATC (RADAR)
Tue 08:54:01 PM -22.6080 149.7110 138° Southeast 187 215 17,100  Level Aus ATC (RADAR)
Tue 08:55:15 PM -22.6566 149.7574 139° Southeast 186 214 17,100  Level Aus ATC (RADAR)
Tue 08:55:30 PM -22.6657 149.7673 135° Southeast 185 213 17,100  Level Aus ATC (RADAR)
Tue 08:56:05 PM -22.6881 149.7892 138° Southeast 188 216 17,100  Level Aus ATC (RADAR)
Tue 08:56:55 PM -22.7198 149.8209 137° Southeast 185 213 17,100  Level Aus ATC (RADAR)
Tue 08:57:30 PM -22.7429 149.8425 139° Southeast 184 212 17,100  Level Aus ATC (RADAR)
Tue 08:58:20 PM -22.7745 149.8748 137° Southeast 187 215 17,100  Level Aus ATC (RADAR)
Tue 08:58:45 PM -22.7905 149.8907 138° Southeast 184 212 17,100  Level Aus ATC (RADAR)
Tue 08:59:20 PM -22.8130 149.9131 137° Southeast 187 215 17,100 -60 Level Aus ATC (RADAR)
Tue 09:00:25 PM -22.8553 149.9543 138° Southeast 188 216 17,000 -67 Descending Aus ATC (RADAR)
Tue 09:00:50 PM -22.8713 149.9707 137° Southeast 188 216 17,000  Level Aus ATC (RADAR)
Tue 09:01:30 PM -22.8968 149.9971 136° Southeast 184 212 17,000  Level Aus ATC (RADAR)
Tue 09:02:15 PM -22.9258 150.0264 137° Southeast 188 216 17,000  Level Aus ATC (RADAR)
Tue 09:02:55 PM -22.9517 150.0517 138° Southeast 184 212 17,000  Level Aus ATC (RADAR)
Tue 09:03:40 PM -22.9809 150.0807 138° Southeast 188 216 17,000  Level Aus ATC (RADAR)
Tue 09:04:05 PM -22.9968 150.0960 138° Southeast 182 209 17,000  Level Aus ATC (RADAR)
Tue 09:05:14 PM -23.0423 150.1422 137° Southeast 189 217 17,000  Level Aus ATC (RADAR)
Tue 09:05:49 PM -23.0649 150.1645 138° Southeast 181 208 17,000  Level Aus ATC (RADAR)
Tue 09:06:04 PM -23.0746 150.1746 136° Southeast 185 213 17,000  Level Aus ATC (RADAR)
Tue 09:06:44 PM -23.1005 150.2005 137° Southeast 188 216 17,000  Level Aus ATC (RADAR)
Tue 09:07:29 PM -23.1292 150.2308 136° Southeast 188 216 17,000  Level Aus ATC (RADAR)
Tue 09:08:04 PM -23.1520 150.2539 137° Southeast 191 220 17,000  Level Aus ATC (RADAR)
Tue 09:08:54 PM -23.1848 150.2864 138° Southeast 189 217 17,000  Level Aus ATC (RADAR)
Tue 09:09:19 PM -23.2011 150.3027 138° Southeast 190 219 17,000  Level Aus ATC (RADAR)
Tue 09:10:54 PM -23.2637 150.3648 138° Southeast 190 219 17,000  Level Aus ATC (RADAR)
Tue 09:11:09 PM -23.2728 150.3747 135° Southeast 186 214 17,000  Level Aus ATC (RADAR)
Tue 09:11:49 PM -23.2991 150.4014 137° Southeast 187 215 17,000  Level Aus ATC (RADAR)
Tue 09:12:34 PM -23.3281 150.4306 137° Southeast 187 215 17,000  Level Aus ATC (RADAR)
Tue 09:13:13 PM -23.3541 150.4574 137° Southeast 187 215 17,000  Level Aus ATC (RADAR)
Tue 09:13:59 PM -23.3822 150.4873 136° Southeast 186 214 17,000  Level Aus ATC (RADAR)
Tue 09:14:23 PM -23.3947 150.5085 123° Southeast 190 219 17,000  Level Aus ATC (RADAR)
Tue 09:15:58 PM -23.4457 150.5836 127° Southeast 190 219 17,000  Level Aus ATC (RADAR)
Tue 09:16:13 PM -23.4535 150.5958 125° Southeast 193 222 17,000  Level Aus ATC (RADAR)
Tue 09:16:53 PM -23.4752 150.6275 127° Southeast 193 222 17,000  Level Aus ATC (RADAR)
Tue 09:17:43 PM -23.5024 150.6692 125° Southeast 206 237 17,000  Level Aus ATC (RADAR)
Tue 09:18:18 PM -23.5215 150.6966 127° Southeast 196 226 17,000  Level Aus ATC (RADAR)
Tue 09:19:08 PM -23.5483 150.7363 126° Southeast 195 224 17,000  Level Aus ATC (RADAR)
Tue 09:19:33 PM -23.5619 150.7561 127° Southeast 194 223 17,000  Level Aus ATC (RADAR)
Tue 09:21:03 PM -23.6108 150.8279 127° Southeast 196 226 17,000  Level Aus ATC (RADAR)
Tue 09:21:28 PM -23.6244 150.8477 127° Southeast 195 224 17,000  Level Aus ATC (RADAR)
Tue 09:22:03 PM -23.6431 150.8755 126° Southeast 195 224 17,000  Level Aus ATC (RADAR)
Tue 09:22:43 PM -23.6644 150.9065 127° Southeast 192 221 17,000  Level Aus ATC (RADAR)
Tue 09:23:18 PM -23.6831 150.9341 126° Southeast 193 222 17,000  Level Aus ATC (RADAR)
Tue 09:24:07 PM -23.7095 150.9730 127° Southeast 191 220 17,000  Level Aus ATC (RADAR)
Tue 09:24:32 PM -23.7227 150.9924 127° Southeast 191 220 17,000  Level Aus ATC (RADAR)
Tue 09:26:02 PM -23.7703 151.0628 126° Southeast 192 221 17,000  Level Aus ATC (RADAR)
Tue 09:26:22 PM -23.7807 151.0789 125° Southeast 193 222 17,000  Level Aus ATC (RADAR)
Tue 09:26:57 PM -23.7996 151.1062 127° Southeast 191 220 17,000  Level Aus ATC (RADAR)
Tue 09:27:47 PM -23.8261 151.1461 126° Southeast 193 222 17,000  Level Aus ATC (RADAR)
Tue 09:28:22 PM -23.8447 151.1742 126° Southeast 194 223 17,000  Level Aus ATC (RADAR)
Tue 09:29:22 PM -23.8762 151.2221 126° Southeast 192 221 17,000  Level Aus ATC (RADAR)
Tue 09:29:37 PM -23.8843 151.2339 127° Southeast 193 222 17,000  Level Aus ATC (RADAR)
Tue 09:31:12 PM -23.9339 151.3094 126° Southeast 191 220 17,000  Level Aus ATC (RADAR)
Tue 09:31:37 PM -23.9470 151.3295 125° Southeast 193 222 17,000  Level Aus ATC (RADAR)
Tue 09:32:17 PM -23.9679 151.3613 126° Southeast 192 221 17,000  Level Aus ATC (RADAR)
Tue 09:32:57 PM -23.9888 151.3930 126° Southeast 193 222 17,000  Level Aus ATC (RADAR)
Tue 09:33:31 PM -24.0071 151.4206 126° Southeast 189 217 17,000  Level Aus ATC (RADAR)
Tue 09:34:21 PM -24.0408 151.4488 143° Southeast 180 207 17,000  Level Aus ATC (RADAR)
Tue 09:34:46 PM -24.0579 151.4635 142° Southeast 185 213 17,000  Level Aus ATC (RADAR)
Tue 09:36:06 PM -24.1079 151.5149 137° Southeast 188 216 17,000  Level Aus ATC (RADAR)
Tue 09:36:21 PM -24.1167 151.5253 133° Southeast 187 215 17,000  Level Aus ATC (RADAR)
Tue 09:37:01 PM -24.1415 151.5506 137° Southeast 180 207 17,000  Level Aus ATC (RADAR)
Tue 09:37:51 PM -24.1736 151.5803 140° Southeast 180 207 17,000  Level Aus ATC (RADAR)
Tue 09:38:26 PM -24.1961 151.6008 140° Southeast 180 207 17,000  Level Aus ATC (RADAR)
Tue 09:39:11 PM -24.2251 151.6283 139° Southeast 183 211 17,000 -171 Level Aus ATC (RADAR)
Tue 09:39:36 PM -24.2415 151.6448 137° Southeast 190 219 16,800 -568 Descending Aus ATC (RADAR)
Tue 09:40:46 PM -24.2895 151.6931 137° Southeast 198 228 16,100 -574 Descending Aus ATC (RADAR)
Tue 09:41:10 PM -24.3069 151.7103 138° Southeast 199 229 15,900 -556 Descending Aus ATC (RADAR)
Tue 09:41:40 PM -24.3273 151.7312 137° Southeast 199 229 15,600 -554 Descending Aus ATC (RADAR)
Tue 09:42:15 PM -24.3520 151.7553 138° Southeast 201 231 15,300 -480 Descending Aus ATC (RADAR)
Tue 09:42:55 PM -24.3789 151.7833 137° Southeast 201 231 15,000 -560 Descending Aus ATC (RADAR)
Tue 09:43:30 PM -24.4030 151.8081 137° Southeast 201 231 14,600 -565 Descending Aus ATC (RADAR)
Tue 09:44:20 PM -24.4376 151.8425 138° Southeast 199 229 14,200 -480 Descending Aus ATC (RADAR)
Tue 09:44:45 PM -24.4546 151.8595 138° Southeast 198 228 14,000 -494 Descending Aus ATC (RADAR)
Tue 09:45:45 PM -24.4938 151.8996 137° Southeast 190 219 13,500 -467 Descending Aus ATC (RADAR)
Tue 09:46:15 PM -24.5123 151.9191 136° Southeast 184 212 13,300 -436 Descending Aus ATC (RADAR)
Tue 09:46:40 PM -24.5283 151.9348 138° Southeast 184 212 13,100 -500 Descending Aus ATC (RADAR)
Tue 09:47:15 PM -24.5503 151.9572 137° Southeast 183 211 12,800 -494 Descending Aus ATC (RADAR)
Tue 09:48:05 PM -24.5808 151.9883 137° Southeast 176 203 12,400 -494 Descending Aus ATC (RADAR)
Tue 09:48:40 PM -24.6024 152.0104 137° Southeast 177 204 12,100 -424 Descending Aus ATC (RADAR)
Tue 09:49:30 PM -24.6321 152.0408 137° Southeast 173 199 11,800 -400 Descending Aus ATC (RADAR)
Tue 09:49:55 PM -24.6471 152.0563 137° Southeast 174 200 11,600 -494 Descending Aus ATC (RADAR)
Tue 09:50:55 PM -24.6833 152.0921 138° Southeast 173 199 11,100 -467 Descending Aus ATC (RADAR)
Tue 09:51:25 PM -24.7008 152.1102 137° Southeast 171 197 10,900 -480 Descending Aus ATC (RADAR)
Tue 09:51:45 PM -24.7115 152.1230 133° Southeast 170 196 10,700 -556 Descending Aus ATC (RADAR)
Tue 09:52:19 PM -24.7315 152.1438 137° Southeast 167 192 10,400 -450 Descending Aus ATC (RADAR)
Tue 09:53:05 PM -24.7567 152.1695 137° Southeast 163 188 10,100 -375 Descending Aus ATC (RADAR)
Tue 09:53:39 PM -24.7771 152.1891 139° Southeast 164 189 9,900 -404 Descending Aus ATC (RADAR)
Tue 09:54:34 PM -24.8075 152.2205 137° Southeast 162 186 9,500 -429 Descending Aus ATC (RADAR)
Tue 09:54:49 PM -24.8159 152.2288 138° Southeast 160 184 9,400 -360 Descending Aus ATC (RADAR)
Tue 09:55:24 PM -24.8347 152.2475 138° Southeast 156 180 9,200 -400 Descending Aus ATC (RADAR)
Tue 09:56:34 PM -24.8718 152.2849 138° Southeast 153 176 8,700 -424 Descending Aus ATC (RADAR)
Tue 09:56:49 PM -24.8794 152.2928 137° Southeast 151 174 8,600 -360 Descending Aus ATC (RADAR)
Tue 09:57:24 PM -24.8985 152.3112 139° Southeast 154 177 8,400 -400 Descending Aus ATC (RADAR)
Tue 09:58:19 PM -24.9251 152.3445 131° Southeast 161 185 8,000 -467 Descending Aus ATC (RADAR)
Tue 09:58:54 PM -24.9409 152.3682 126° Southeast 162 186 7,700 -424 Descending Aus ATC (RADAR)
Tue 09:59:44 PM -24.9649 152.4006 129° Southeast 161 185 7,400 -395 Descending Aus ATC (RADAR)
Tue 10:00:10 PM -24.9767 152.4174 128° Southeast 163 188 7,200 -436 Descending Aus ATC (RADAR)
Tue 10:01:34 PM -25.0190 152.4721 131° Southeast 163 188 6,600 -421 Descending Aus ATC (RADAR)
Tue 10:02:04 PM -25.0341 152.4913 131° Southeast 164 189 6,400 -327 Descending Aus ATC (RADAR)
Tue 10:02:29 PM -25.0470 152.5076 131° Southeast 166 191 6,300 -400 Descending Aus ATC (RADAR)
Tue 10:03:04 PM -25.0653 152.5295 133° Southeast 165 190 6,000 -444 Descending Aus ATC (RADAR)
Tue 10:03:23 PM -25.0765 152.5410 137° Southeast 165 190 5,900 -405 Descending Aus ATC (RADAR)
Tue 10:04:18 PM -25.0990 152.5778 124° Southeast 176 203 5,500 -400 Descending Aus ATC (RADAR)
Tue 10:05:08 PM -25.1226 152.6104 129° Southeast 164 189 5,200 -400 Descending Aus ATC (RADAR)
Tue 10:05:33 PM -25.1345 152.6265 129° Southeast 163 188 5,000 -457 Descending Aus ATC (RADAR)
Tue 10:06:53 PM -25.1774 152.6749 134° Southeast 165 190 4,400 -467 Descending Aus ATC (RADAR)
Tue 10:07:03 PM -25.1828 152.6807 136° Southeast 165 190 4,300 -600 Descending Aus ATC (RADAR)
Tue 10:10:08 PM -25.2848 152.8304 127° Southeast -1,395 Descending Aus ATC (Calculated)
Tue 10:12:00 PM -25.3189 152.8803 127° Southeast  Level Estimated
Tue 10:13:00 PM -25.3189 152.8803 299° West  Level Estimated

Login

Don't have an account? Register now (free) for customized features, flight alerts, and more!